createdAt,value
2022-10-22T06:43:50.780Z,2.30
2022-10-22T06:46:21.314Z,3.00
2022-10-22T06:48:50.656Z,1.87
2022-10-22T06:51:19.545Z,2.50
2022-10-22T06:53:47.575Z,2.50
2022-10-22T06:56:17.405Z,2.27
2022-10-22T06:58:48.329Z,2.60
2022-10-22T07:01:19.443Z,2.63
2022-10-22T07:03:47.742Z,2.37
2022-10-22T07:06:16.377Z,2.67
2022-10-22T07:08:44.999Z,2.80
2022-10-22T07:11:15.629Z,1.97
2022-10-22T07:13:44.535Z,2.50
2022-10-22T07:16:13.552Z,2.37
2022-10-22T07:18:44.907Z,2.60
2022-10-22T07:21:14.128Z,2.67
2022-10-22T07:23:42.586Z,2.47
2022-10-22T07:26:12.278Z,2.70
2022-10-22T07:28:41.143Z,2.80
2022-10-22T07:31:11.074Z,2.57
2022-10-22T07:33:40.210Z,2.67
2022-10-22T07:36:12.551Z,2.57
2022-10-22T07:38:40.482Z,2.57
2022-10-22T07:41:08.520Z,2.33
2022-10-22T07:43:36.917Z,2.53
2022-10-22T07:46:04.972Z,2.67
2022-10-22T07:48:33.083Z,2.30
2022-10-22T07:51:01.072Z,2.67
2022-10-22T07:53:30.487Z,2.30
2022-10-22T07:55:58.573Z,2.17
2022-10-22T07:58:26.623Z,2.53
2022-10-22T08:00:57.498Z,1.90
2022-10-22T08:03:25.610Z,2.37
2022-10-22T08:05:54.025Z,2.40
2022-10-22T08:08:24.905Z,2.33
2022-10-22T08:10:59.044Z,1.90
2022-10-22T08:13:27.571Z,2.10
2022-10-22T08:15:57.554Z,1.90
2022-10-22T08:18:26.205Z,2.63
2022-10-22T08:20:54.503Z,2.73
2022-10-22T08:23:26.006Z,2.53
2022-10-22T08:25:58.452Z,2.50
2022-10-22T08:28:28.554Z,2.90
2022-10-22T08:30:56.694Z,2.80
2022-10-22T08:33:24.702Z,3.20
2022-10-22T08:35:53.362Z,2.53
2022-10-22T08:38:21.852Z,3.17
2022-10-22T08:40:52.891Z,2.93
2022-10-22T08:44:02.347Z,2.80
2022-10-22T08:46:43.948Z,2.33
2022-10-22T08:49:17.393Z,2.80
2022-10-22T08:51:45.392Z,2.67
2022-10-22T08:54:28.614Z,3.07
2022-10-22T08:57:07.827Z,2.80
2022-10-22T08:59:41.828Z,2.60
2022-10-22T09:02:26.578Z,2.47
2022-10-22T09:05:01.863Z,2.93
2022-10-22T09:07:29.994Z,2.53
2022-10-22T09:10:00.724Z,2.43
2022-10-22T09:12:29.081Z,2.57
2022-10-22T09:14:57.079Z,2.83
2022-10-22T09:17:35.404Z,2.57
2022-10-22T09:20:10.902Z,2.47
2022-10-22T09:22:43.786Z,2.80
2022-10-22T09:25:20.578Z,2.97
2022-10-22T09:27:49.083Z,3.40
2022-10-22T09:30:19.191Z,2.63
2022-10-22T09:32:52.001Z,2.23
2022-10-22T09:35:24.406Z,2.87
2022-10-22T09:37:56.387Z,2.27
2022-10-22T09:40:24.714Z,2.97
2022-10-22T09:42:52.729Z,2.50
2022-10-22T09:45:24.283Z,2.33
2022-10-22T09:48:10.680Z,2.67
2022-10-22T09:50:43.994Z,2.10
2022-10-22T09:53:18.987Z,2.57
2022-10-22T09:55:52.769Z,2.77
2022-10-22T09:58:21.429Z,2.90
2022-10-22T10:00:53.459Z,2.73
2022-10-22T10:03:24.493Z,2.87
2022-10-22T10:05:56.339Z,2.80
2022-10-22T10:08:26.298Z,3.33
2022-10-22T10:10:59.798Z,2.63
2022-10-22T10:13:39.867Z,2.30
2022-10-22T10:16:27.822Z,2.93
2022-10-22T10:19:21.191Z,2.47
2022-10-22T10:21:58.101Z,2.70
2022-10-22T10:24:34.460Z,2.90
2022-10-22T10:27:09.873Z,2.37
2022-10-22T10:29:52.093Z,2.60
2022-10-22T10:32:40.795Z,2.80
2022-10-22T10:35:24.872Z,2.70
2022-10-22T10:38:06.097Z,2.63
2022-10-22T10:40:41.096Z,2.30
2022-10-22T10:43:14.442Z,2.87
2022-10-22T10:45:55.698Z,2.70
2022-10-22T10:48:38.004Z,2.43
2022-10-22T10:51:21.715Z,2.33
2022-10-22T10:54:03.481Z,2.13
2022-10-22T10:56:40.369Z,2.20
2022-10-22T10:59:20.085Z,2.20
2022-10-22T11:02:03.868Z,2.50
2022-10-22T11:05:04.281Z,2.17
2022-10-22T11:07:39.546Z,1.90
2022-10-22T11:10:14.886Z,2.08
2022-10-22T11:12:51.471Z,2.22
2022-10-22T11:15:30.230Z,1.92
2022-10-22T11:18:03.957Z,2.10
2022-10-22T11:20:39.267Z,2.35
2022-10-22T11:23:20.974Z,2.10
2022-10-22T11:25:50.946Z,1.95
2022-10-22T11:28:25.540Z,2.20
2022-10-22T11:31:01.164Z,2.03
2022-10-22T11:33:37.512Z,2.28
2022-10-22T11:36:07.894Z,2.13
2022-10-22T11:38:38.219Z,2.00
2022-10-22T11:41:08.444Z,2.22
2022-10-22T11:43:57.010Z,1.80
2022-10-22T11:46:46.118Z,2.60
2022-10-22T11:49:22.877Z,2.10
2022-10-22T11:51:51.679Z,2.00
2022-10-22T11:54:42.647Z,2.05
2022-10-22T11:57:24.342Z,2.05
2022-10-22T11:59:54.647Z,1.80
2022-10-22T12:02:44.587Z,2.33
2022-10-22T12:05:35.957Z,2.00
2022-10-22T12:08:15.884Z,1.88
2022-10-22T12:11:13.162Z,2.20
2022-10-22T12:14:02.650Z,2.00
2022-10-22T12:16:55.297Z,2.38
2022-10-22T12:19:33.032Z,2.28
2022-10-22T12:22:12.126Z,2.00
2022-10-22T12:24:44.570Z,2.10
2022-10-22T12:27:23.193Z,2.13
2022-10-22T12:29:56.533Z,2.25
2022-10-22T12:32:25.323Z,1.88
2022-10-22T12:34:53.974Z,1.70
2022-10-22T12:37:22.336Z,2.10
2022-10-22T12:39:50.303Z,1.75
2022-10-22T12:42:22.380Z,1.40
2022-10-22T12:44:55.532Z,1.70
2022-10-22T12:47:23.700Z,1.70
2022-10-22T12:49:52.428Z,2.50
2022-10-22T12:52:23.711Z,2.00
2022-10-22T12:54:53.509Z,1.80
2022-10-22T12:57:24.735Z,1.83
2022-10-22T12:59:53.249Z,1.75
2022-10-22T13:02:24.458Z,2.28
2022-10-22T13:05:15.979Z,1.58
2022-10-22T13:07:48.008Z,1.65
2022-10-22T13:10:20.896Z,1.80
2022-10-22T13:12:56.979Z,2.20
2022-10-22T13:15:37.542Z,1.58
2022-10-22T13:18:18.127Z,1.98
2022-10-22T13:20:57.217Z,1.73
2022-10-22T13:23:26.909Z,1.55
2022-10-22T13:26:00.159Z,1.52
2022-10-22T13:28:31.643Z,1.38
2022-10-22T13:31:01.480Z,1.40
2022-10-22T13:33:34.441Z,1.17
2022-10-22T13:36:03.107Z,1.15
2022-10-22T13:38:31.878Z,1.45
2022-10-22T13:41:00.323Z,1.25
2022-10-22T13:43:29.686Z,1.40
2022-10-22T13:46:01.078Z,1.30
2022-10-22T13:48:31.066Z,1.58
2022-10-22T13:50:59.122Z,1.40
2022-10-22T13:53:29.123Z,1.23
2022-10-22T13:55:57.336Z,1.42
2022-10-22T13:58:25.954Z,1.67
2022-10-22T14:00:58.059Z,1.40
2022-10-22T14:03:29.443Z,1.42
2022-10-22T14:05:58.254Z,1.42
2022-10-22T14:08:27.331Z,1.63
2022-10-22T14:10:56.186Z,1.40
2022-10-22T14:13:24.372Z,1.58
2022-10-22T14:15:53.281Z,1.30
2022-10-22T14:18:28.856Z,1.38
2022-10-22T14:20:59.911Z,1.40
2022-10-22T14:23:29.373Z,1.40
2022-10-22T14:25:58.382Z,1.40
2022-10-22T14:28:26.593Z,1.55
2022-10-22T14:30:55.544Z,1.40
2022-10-22T14:33:30.506Z,1.15
2022-10-22T14:35:59.958Z,1.30
2022-10-22T14:38:28.049Z,1.67
2022-10-22T14:40:56.753Z,1.55
2022-10-22T14:43:26.641Z,1.20
2022-10-22T14:45:55.024Z,1.63
2022-10-22T14:48:24.364Z,1.50
2022-10-22T14:50:52.506Z,1.30
2022-10-22T14:53:20.573Z,1.40
2022-10-22T14:55:49.243Z,1.33
2022-10-22T14:58:17.431Z,1.23
2022-10-22T15:00:46.041Z,1.58
2022-10-22T15:03:14.054Z,1.40
2022-10-22T15:05:44.862Z,1.40
2022-10-22T15:08:13.508Z,1.58
2022-10-22T15:10:41.741Z,1.60
2022-10-22T15:13:10.040Z,1.23
2022-10-22T15:15:39.779Z,1.50
2022-10-22T15:18:08.419Z,1.40
2022-10-22T15:20:36.524Z,1.45
2022-10-22T15:23:05.885Z,1.65
2022-10-22T15:25:33.965Z,1.63
2022-10-22T15:28:09.160Z,1.63
2022-10-22T15:30:37.688Z,1.83
2022-10-22T15:33:05.754Z,1.53
2022-10-22T15:35:33.750Z,1.70
2022-10-22T15:38:01.876Z,1.70
2022-10-22T15:40:31.200Z,1.70
2022-10-22T15:42:59.354Z,1.90
2022-10-22T15:45:27.340Z,1.50
2022-10-22T15:47:55.329Z,1.80
2022-10-22T15:50:23.290Z,1.97
2022-10-22T15:52:51.366Z,1.70
2022-10-22T15:55:19.391Z,2.70
2022-10-22T15:57:54.681Z,2.20
2022-10-22T16:00:24.975Z,2.17
2022-10-22T16:02:54.723Z,1.60
2022-10-22T16:05:22.721Z,2.70
2022-10-22T16:10:20.828Z,6.90
